createdAt,value
2018-08-16T00:01:33.418Z,100593.31
2018-08-16T00:04:31.304Z,100598.80
2018-08-16T00:07:28.842Z,100595.95
2018-08-16T00:10:27.284Z,100605.82
2018-08-16T00:13:24.847Z,100596.33
2018-08-16T00:16:22.481Z,100597.80
2018-08-16T00:19:20.540Z,100597.28
2018-08-16T00:22:17.549Z,100596.64
2018-08-16T00:25:16.219Z,100591.29
2018-08-16T00:28:14.132Z,100596.26
2018-08-16T00:31:11.956Z,100589.47
2018-08-16T00:34:09.852Z,100590.02
2018-08-16T00:37:07.637Z,100590.84
2018-08-16T00:40:05.387Z,100589.37
2018-08-16T00:43:02.851Z,100584.98
2018-08-16T00:46:00.700Z,100583.02
2018-08-16T00:48:58.549Z,100583.88
2018-08-16T00:51:56.483Z,100587.13
2018-08-16T00:54:54.439Z,100580.39
2018-08-16T00:57:52.231Z,100579.73
2018-08-16T01:00:49.332Z,100581.82
2018-08-16T01:03:47.337Z,100576.44
2018-08-16T01:06:44.683Z,100585.00
2018-08-16T01:09:42.352Z,100580.55
2018-08-16T01:12:39.913Z,100572.78
2018-08-16T01:15:38.202Z,100572.16
2018-08-16T01:18:35.978Z,100575.82
2018-08-16T01:21:33.944Z,100578.22
2018-08-16T01:24:31.949Z,100577.53
2018-08-16T01:27:29.078Z,100577.91
2018-08-16T01:30:27.972Z,100577.53
2018-08-16T01:33:26.100Z,100577.39
2018-08-16T01:36:23.279Z,100577.62
2018-08-16T01:39:22.520Z,100582.94
2018-08-16T01:42:20.616Z,100577.22
2018-08-16T01:45:18.663Z,100578.95
2018-08-16T01:48:16.719Z,100575.83
2018-08-16T01:51:14.811Z,100572.14
2018-08-16T01:54:12.709Z,100575.78
2018-08-16T01:57:11.272Z,100572.00
2018-08-16T02:00:09.032Z,100569.58
2018-08-16T02:03:07.236Z,100570.15
2018-08-16T02:06:04.671Z,100566.39
2018-08-16T02:09:02.546Z,100564.45
2018-08-16T02:12:00.535Z,100567.84
2018-08-16T02:14:58.419Z,100562.31
2018-08-16T02:17:56.191Z,100562.34
2018-08-16T02:20:54.044Z,100564.86
2018-08-16T02:23:52.018Z,100565.53
2018-08-16T02:26:49.249Z,100567.03
2018-08-16T02:29:46.572Z,100562.64
2018-08-16T02:32:45.534Z,100566.63
2018-08-16T02:35:43.199Z,100565.63
2018-08-16T02:38:41.140Z,100559.02
2018-08-16T02:41:39.015Z,100560.76
2018-08-16T02:44:36.963Z,100560.91
2018-08-16T02:47:34.141Z,100558.47
2018-08-16T02:50:31.536Z,100565.13
2018-08-16T02:53:28.792Z,100561.19
2018-08-16T02:56:26.860Z,100562.27
2018-08-16T02:59:24.845Z,100564.78
2018-08-16T03:02:22.137Z,100557.29
2018-08-16T03:05:20.085Z,100557.34
2018-08-16T03:08:17.880Z,100554.88
2018-08-16T03:11:16.010Z,100547.36
2018-08-16T03:14:14.103Z,100555.35
2018-08-16T03:17:11.055Z,100549.09
2018-08-16T03:20:08.483Z,100548.26
2018-08-16T03:23:05.950Z,100544.79
2018-08-16T03:26:03.608Z,100543.77
2018-08-16T03:29:01.288Z,100537.19
2018-08-16T03:31:59.480Z,100534.56
2018-08-16T03:34:56.813Z,100536.75
2018-08-16T03:37:54.931Z,100534.66
2018-08-16T03:40:52.983Z,100532.34
2018-08-16T03:43:49.969Z,100522.91
2018-08-16T03:46:47.093Z,100521.93
2018-08-16T03:49:44.259Z,100524.75
2018-08-16T03:52:41.287Z,100528.77
2018-08-16T03:55:38.263Z,100524.61
2018-08-16T03:58:36.013Z,100532.91
2018-08-16T04:01:34.116Z,100523.27
2018-08-16T04:04:31.359Z,100528.94
2018-08-16T04:07:29.361Z,100530.27
2018-08-16T04:10:27.424Z,100528.91
2018-08-16T04:13:25.390Z,100530.09
2018-08-16T04:16:22.416Z,100528.61
2018-08-16T04:19:20.218Z,100531.91
2018-08-16T04:22:17.676Z,100523.60
2018-08-16T04:25:15.436Z,100527.78
2018-08-16T04:28:13.308Z,100530.25
2018-08-16T04:31:10.688Z,100526.11
2018-08-16T04:34:08.616Z,100528.42
2018-08-16T04:37:06.704Z,100530.09
2018-08-16T04:40:03.844Z,100527.09
2018-08-16T04:43:01.823Z,100529.38
2018-08-16T04:45:59.611Z,100531.61
2018-08-16T04:48:57.368Z,100530.80
2018-08-16T04:51:54.732Z,100519.91
2018-08-16T04:54:52.780Z,100521.19
2018-08-16T04:57:50.216Z,100525.36
2018-08-16T05:00:47.524Z,100526.00
2018-08-16T05:03:44.899Z,100518.91
2018-08-16T05:06:42.281Z,100531.58
2018-08-16T05:09:40.219Z,100525.70
2018-08-16T05:12:37.384Z,100523.20
2018-08-16T05:15:35.447Z,100529.43
2018-08-16T05:18:32.612Z,100517.89
2018-08-16T05:21:30.784Z,100527.80
2018-08-16T05:24:28.951Z,100528.79
2018-08-16T05:27:26.720Z,100520.16
2018-08-16T05:30:23.932Z,100522.81
2018-08-16T05:33:21.156Z,100528.24
2018-08-16T05:36:18.345Z,100525.28
2018-08-16T05:39:15.671Z,100520.16
2018-08-16T05:42:12.725Z,100519.20
2018-08-16T05:45:09.791Z,100517.05
2018-08-16T05:48:07.695Z,100517.42
2018-08-16T05:51:05.744Z,100520.27
2018-08-16T05:54:03.832Z,100509.34
2018-08-16T05:57:01.871Z,100507.70
2018-08-16T05:59:59.945Z,100512.85
2018-08-16T06:02:58.019Z,100505.61
2018-08-16T06:05:55.295Z,100502.73
2018-08-16T06:08:52.658Z,100500.50
2018-08-16T06:11:50.825Z,100496.30
2018-08-16T06:14:48.628Z,100484.84
2018-08-16T06:17:46.777Z,100483.49
2018-08-16T06:20:44.820Z,100476.04
2018-08-16T06:23:42.414Z,100481.66
2018-08-16T06:26:40.653Z,100474.09
2018-08-16T06:29:37.910Z,100469.40
2018-08-16T06:32:35.218Z,100477.30
2018-08-16T06:35:32.368Z,100467.95
2018-08-16T06:38:37.625Z,100467.14
2018-08-16T06:41:35.704Z,100475.30
2018-08-16T06:44:32.995Z,100463.00
2018-08-16T06:47:30.664Z,100465.55
2018-08-16T06:50:28.188Z,100465.70
2018-08-16T06:53:26.252Z,100449.33
2018-08-16T06:56:23.416Z,100463.61
2018-08-16T06:59:21.076Z,100458.92
2018-08-16T07:02:18.536Z,100451.50
2018-08-16T07:05:16.015Z,100448.19
2018-08-16T07:08:14.064Z,100434.61
2018-08-16T07:11:11.936Z,100433.60
2018-08-16T07:14:10.175Z,100448.41
2018-08-16T07:17:07.603Z,100444.28
2018-08-16T07:20:05.468Z,100435.31
2018-08-16T07:23:02.918Z,100441.56
2018-08-16T07:26:00.827Z,100453.64
2018-08-16T07:28:58.703Z,100449.60
2018-08-16T07:31:56.833Z,100443.48
2018-08-16T07:34:54.711Z,100432.11
2018-08-16T07:37:52.900Z,100431.57
2018-08-16T07:40:50.776Z,100406.75
2018-08-16T07:43:47.796Z,100407.39
2018-08-16T07:46:45.987Z,100396.63
2018-08-16T07:49:44.080Z,100409.03
2018-08-16T07:52:41.056Z,100410.67
2018-08-16T07:55:39.107Z,100402.66
2018-08-16T07:58:37.141Z,100409.28
2018-08-16T08:01:35.168Z,100413.36
2018-08-16T08:04:33.230Z,100413.68
2018-08-16T08:07:30.281Z,100423.13
2018-08-16T08:10:28.403Z,100418.27
2018-08-16T08:13:26.179Z,100420.75
2018-08-16T08:16:23.363Z,100417.89
2018-08-16T08:19:21.299Z,100418.42
2018-08-16T08:22:19.331Z,100417.30
2018-08-16T08:25:16.650Z,100414.95
2018-08-16T08:28:13.827Z,100399.87
2018-08-16T08:31:11.912Z,100392.68
2018-08-16T08:34:09.220Z,100399.41
2018-08-16T08:37:18.548Z,100383.50
2018-08-16T08:40:16.451Z,100385.27
2018-08-16T08:43:14.444Z,100393.57
2018-08-16T08:46:12.422Z,100387.66
2018-08-16T08:49:10.831Z,100386.68
2018-08-16T08:52:08.363Z,100387.49
2018-08-16T08:55:18.215Z,100385.31
2018-08-16T08:58:27.242Z,100379.05
2018-08-16T09:01:25.072Z,100378.76
2018-08-16T09:04:22.727Z,100375.11
2018-08-16T09:07:22.678Z,100389.05
2018-08-16T09:11:30.756Z,100373.19
2018-08-16T09:14:40.665Z,100378.66
2018-08-16T09:20:42.523Z,100356.31
2018-08-16T09:23:40.331Z,100348.97
2018-08-16T09:26:43.631Z,100353.32
2018-08-16T09:30:51.660Z,100362.76
2018-08-16T09:34:00.935Z,100336.84
2018-08-16T09:36:59.018Z,100374.69
2018-08-16T09:39:56.400Z,100373.45
2018-08-16T09:42:53.524Z,100362.80
2018-08-16T09:47:15.159Z,100342.03
2018-08-16T09:50:12.583Z,100356.25
2018-08-16T09:53:10.659Z,100376.88
2018-08-16T09:56:08.886Z,100377.58
2018-08-16T09:59:06.075Z,100373.95
2018-08-16T10:02:03.455Z,100361.27
2018-08-16T10:05:01.139Z,100355.94
2018-08-16T10:07:58.514Z,100354.41
2018-08-16T10:10:56.385Z,100349.68
2018-08-16T10:13:54.343Z,100341.80
2018-08-16T10:16:52.332Z,100340.41
2018-08-16T10:19:50.187Z,100341.61
2018-08-16T10:22:48.290Z,100327.54
2018-08-16T10:25:45.921Z,100331.00
2018-08-16T10:28:43.365Z,100325.03
2018-08-16T10:31:41.526Z,100316.70
2018-08-16T10:34:40.339Z,100309.92
2018-08-16T10:37:37.956Z,100318.86
2018-08-16T10:40:35.624Z,100303.79
2018-08-16T10:43:33.571Z,100306.28
2018-08-16T10:46:32.410Z,100296.41
2018-08-16T10:49:30.783Z,100302.97
2018-08-16T10:52:28.825Z,100301.17
2018-08-16T10:55:26.125Z,100291.31
2018-08-16T10:58:24.176Z,100274.11
2018-08-16T11:01:21.604Z,100281.96
2018-08-16T11:04:19.353Z,100274.92
2018-08-16T11:07:17.380Z,100274.51
2018-08-16T11:10:15.064Z,100275.28
2018-08-16T11:13:13.143Z,100265.57
2018-08-16T11:16:10.292Z,100279.09
2018-08-16T11:19:08.168Z,100258.04
2018-08-16T11:22:05.251Z,100259.37
2018-08-16T11:25:05.346Z,100248.58
2018-08-16T11:28:02.624Z,100257.22
2018-08-16T11:31:00.557Z,100252.97
2018-08-16T11:33:58.319Z,100257.19
2018-08-16T11:36:56.072Z,100256.14
2018-08-16T11:39:53.950Z,100268.58
2018-08-16T11:42:51.324Z,100262.38
2018-08-16T11:45:49.393Z,100257.34
2018-08-16T11:48:47.262Z,100256.05
2018-08-16T11:51:44.637Z,100252.30
2018-08-16T11:54:42.374Z,100258.59
2018-08-16T11:57:40.147Z,100255.95
2018-08-16T12:00:38.138Z,100254.51
2018-08-16T12:03:36.322Z,100248.11
2018-08-16T12:06:34.115Z,100236.75
2018-08-16T12:09:31.251Z,100241.59
2018-08-16T12:12:28.417Z,100245.80
2018-08-16T12:15:25.550Z,100247.45
2018-08-16T12:18:23.428Z,100229.72
2018-08-16T12:21:21.339Z,100238.13
2018-08-16T12:24:19.362Z,100231.66
2018-08-16T12:27:17.455Z,100234.69
2018-08-16T12:30:14.879Z,100223.13
2018-08-16T12:33:12.733Z,100217.93
2018-08-16T12:36:09.713Z,100208.30
2018-08-16T12:39:07.404Z,100211.02
2018-08-16T12:42:05.346Z,100207.89
2018-08-16T12:45:03.479Z,100208.48
2018-08-16T12:48:01.413Z,100215.10
2018-08-16T12:50:58.806Z,100209.33
2018-08-16T12:53:56.252Z,100202.08
2018-08-16T12:56:54.428Z,100195.66
2018-08-16T12:59:52.518Z,100188.77
2018-08-16T13:02:50.384Z,100182.53
2018-08-16T13:05:48.540Z,100186.23
2018-08-16T13:08:45.657Z,100190.45
2018-08-16T13:11:43.593Z,100188.85
2018-08-16T13:14:41.467Z,100171.42
2018-08-16T13:17:39.366Z,100171.39
2018-08-16T13:20:36.897Z,100171.22
2018-08-16T13:23:34.253Z,100167.52
2018-08-16T13:26:31.715Z,100160.94
2018-08-16T13:29:29.860Z,100162.03
2018-08-16T13:32:26.956Z,100154.09
2018-08-16T13:35:24.826Z,100155.03
2018-08-16T13:38:22.759Z,100160.42
2018-08-16T13:41:21.447Z,100156.98
2018-08-16T13:44:18.338Z,100157.60
2018-08-16T13:47:16.143Z,100144.08
2018-08-16T13:50:14.256Z,100139.63
2018-08-16T13:53:12.240Z,100141.72
2018-08-16T13:56:10.176Z,100148.80
2018-08-16T13:59:07.175Z,100142.70
2018-08-16T14:02:05.069Z,100142.91
2018-08-16T14:05:03.023Z,100144.13
2018-08-16T14:08:00.469Z,100141.16
2018-08-16T14:11:00.496Z,100137.45
2018-08-16T14:13:58.191Z,100131.98
2018-08-16T14:17:04.351Z,100135.87
2018-08-16T14:20:02.426Z,100139.82
2018-08-16T14:22:59.635Z,100137.19
2018-08-16T14:25:56.889Z,100133.53
2018-08-16T14:28:55.236Z,100125.73
2018-08-16T14:31:55.524Z,100118.58
2018-08-16T14:34:53.042Z,100121.31
2018-08-16T14:37:51.194Z,100124.25
2018-08-16T14:40:49.233Z,100121.77
2018-08-16T14:43:46.389Z,100118.34
2018-08-16T14:46:43.832Z,100115.78
2018-08-16T14:49:41.135Z,100117.48
2018-08-16T14:52:39.170Z,100119.72
2018-08-16T14:55:36.956Z,100112.46
2018-08-16T14:58:34.063Z,100125.91
2018-08-16T15:01:31.798Z,100116.96
2018-08-16T15:04:29.092Z,100111.75
2018-08-16T15:07:26.628Z,100118.53
2018-08-16T15:10:23.789Z,100114.19
2018-08-16T15:13:21.856Z,100099.78
2018-08-16T15:16:19.379Z,100098.42
2018-08-16T15:19:17.204Z,100110.84
2018-08-16T15:22:15.062Z,100107.89
2018-08-16T15:25:12.761Z,100110.66
2018-08-16T15:28:10.019Z,100106.80
2018-08-16T15:31:07.568Z,100099.84
2018-08-16T15:34:04.899Z,100101.86
2018-08-16T15:37:01.978Z,100103.76
2018-08-16T15:40:00.020Z,100098.33
2018-08-16T15:42:57.815Z,100099.81
2018-08-16T15:45:55.955Z,100097.08
2018-08-16T15:48:53.453Z,100091.50
2018-08-16T15:51:50.692Z,100090.91
2018-08-16T15:54:48.256Z,100091.13
2018-08-16T15:57:45.273Z,100096.81
2018-08-16T16:00:42.701Z,100086.23
2018-08-16T16:03:40.024Z,100081.13
2018-08-16T16:06:37.296Z,100085.78
2018-08-16T16:09:35.268Z,100088.05
2018-08-16T16:12:33.241Z,100091.25
2018-08-16T16:15:31.150Z,100092.34
2018-08-16T16:18:28.911Z,100094.87
2018-08-16T16:21:26.475Z,100092.52
2018-08-16T16:24:23.992Z,100089.79
2018-08-16T16:27:22.064Z,100083.44
2018-08-16T16:30:20.982Z,100075.26
2018-08-16T16:33:18.775Z,100081.81
2018-08-16T16:36:16.491Z,100076.03
2018-08-16T16:39:14.612Z,100073.30
2018-08-16T16:42:12.573Z,100071.83
2018-08-16T16:45:10.522Z,100074.48
2018-08-16T16:48:08.020Z,100072.33
2018-08-16T16:51:05.925Z,100064.38
2018-08-16T16:54:04.062Z,100071.37
2018-08-16T16:57:01.291Z,100075.98
2018-08-16T16:59:59.221Z,100076.19
2018-08-16T17:02:56.274Z,100086.41
2018-08-16T17:05:54.196Z,100083.00
2018-08-16T17:08:52.096Z,100090.30
2018-08-16T17:11:49.896Z,100090.53
2018-08-16T17:14:47.868Z,100086.29
2018-08-16T17:17:46.723Z,100093.63
2018-08-16T17:20:44.057Z,100089.95
2018-08-16T17:23:42.213Z,100090.06
2018-08-16T17:26:40.248Z,100097.56
2018-08-16T17:29:38.191Z,100101.30
2018-08-16T17:32:36.185Z,100095.17
2018-08-16T17:35:34.161Z,100093.66
2018-08-16T17:38:32.344Z,100089.52
2018-08-16T17:41:30.156Z,100095.19
2018-08-16T17:44:28.172Z,100095.66
2018-08-16T17:47:26.158Z,100093.55
2018-08-16T17:50:24.047Z,100099.28
2018-08-16T17:53:22.115Z,100109.43
2018-08-16T17:56:19.864Z,100107.92
2018-08-16T17:59:17.769Z,100101.80
2018-08-16T18:02:15.597Z,100100.08
2018-08-16T18:05:13.619Z,100111.12
2018-08-16T18:08:11.238Z,100107.34
2018-08-16T18:11:08.616Z,100117.34
2018-08-16T18:14:06.364Z,100114.52
2018-08-16T18:17:04.256Z,100113.72
2018-08-16T18:20:02.408Z,100118.58
2018-08-16T18:23:00.340Z,100120.30
2018-08-16T18:25:58.289Z,100117.88
2018-08-16T18:28:56.150Z,100117.20
2018-08-16T18:31:53.390Z,100127.31
2018-08-16T18:34:51.428Z,100129.84
2018-08-16T18:37:49.149Z,100131.50
2018-08-16T18:40:46.185Z,100136.55
2018-08-16T18:43:44.239Z,100134.84
2018-08-16T18:46:41.987Z,100141.17
2018-08-16T18:49:39.553Z,100135.66
2018-08-16T18:52:37.059Z,100142.22
2018-08-16T18:55:34.971Z,100148.79
2018-08-16T18:58:33.015Z,100154.42
2018-08-16T19:01:30.908Z,100159.54
2018-08-16T19:04:28.881Z,100162.64
2018-08-16T19:07:26.308Z,100160.68
2018-08-16T19:10:23.202Z,100164.97
2018-08-16T19:13:20.786Z,100161.12
2018-08-16T19:16:17.856Z,100163.99
2018-08-16T19:19:14.997Z,100168.49
2018-08-16T19:22:12.775Z,100167.51
2018-08-16T19:25:10.022Z,100173.06
2018-08-16T19:28:07.640Z,100175.77
2018-08-16T19:31:05.564Z,100179.22
2018-08-16T19:34:03.083Z,100183.19
2018-08-16T19:37:01.090Z,100183.23
2018-08-16T19:39:59.363Z,100188.06
2018-08-16T19:42:57.488Z,100188.41
2018-08-16T19:45:55.633Z,100193.02
2018-08-16T19:48:53.837Z,100200.06
2018-08-16T19:51:51.157Z,100198.03
2018-08-16T19:54:49.342Z,100203.91
2018-08-16T19:57:47.375Z,100207.86
2018-08-16T20:00:47.328Z,100207.56
2018-08-16T20:03:45.549Z,100206.84
2018-08-16T20:06:43.607Z,100217.99
2018-08-16T20:09:41.507Z,100217.50
2018-08-16T20:12:39.512Z,100215.33
2018-08-16T20:15:37.523Z,100217.11
2018-08-16T20:18:35.651Z,100220.11
2018-08-16T20:21:33.348Z,100220.09
2018-08-16T20:24:31.311Z,100219.66
2018-08-16T20:27:29.474Z,100221.42
2018-08-16T20:30:27.253Z,100228.09
2018-08-16T20:33:25.903Z,100223.13
2018-08-16T20:36:23.260Z,100221.05
2018-08-16T20:39:22.178Z,100226.41
2018-08-16T20:42:20.349Z,100223.47
2018-08-16T20:45:18.521Z,100225.09
2018-08-16T20:48:16.675Z,100226.77
2018-08-16T20:51:14.673Z,100222.73
2018-08-16T20:54:12.539Z,100225.11
2018-08-16T20:57:10.281Z,100230.13
2018-08-16T21:00:08.382Z,100228.03
2018-08-16T21:03:05.520Z,100231.22
2018-08-16T21:06:03.049Z,100233.80
2018-08-16T21:09:00.996Z,100233.44
2018-08-16T21:11:58.971Z,100237.05
2018-08-16T21:14:56.975Z,100242.89
2018-08-16T21:17:54.948Z,100241.64
2018-08-16T21:20:52.790Z,100232.98
2018-08-16T21:23:50.219Z,100239.17
2018-08-16T21:26:47.926Z,100236.84
2018-08-16T21:29:45.968Z,100237.25
2018-08-16T21:32:44.209Z,100236.11
2018-08-16T21:35:42.077Z,100238.88
2018-08-16T21:38:40.300Z,100235.56
2018-08-16T21:41:37.566Z,100234.05
2018-08-16T21:44:35.299Z,100240.22
2018-08-16T21:47:33.368Z,100240.39
2018-08-16T21:50:31.993Z,100238.76
2018-08-16T21:53:29.988Z,100242.25
2018-08-16T21:56:27.039Z,100243.41
2018-08-16T21:59:24.433Z,100244.69
2018-08-16T22:02:22.240Z,100246.50
2018-08-16T22:05:19.727Z,100247.27
2018-08-16T22:09:34.360Z,100249.02
2018-08-16T22:12:31.482Z,100252.76
2018-08-16T22:15:29.326Z,100250.79
2018-08-16T22:18:27.342Z,100257.91
2018-08-16T22:21:25.023Z,100252.20
2018-08-16T22:24:23.013Z,100253.63
2018-08-16T22:27:20.196Z,100259.58
2018-08-16T22:30:18.304Z,100264.58
2018-08-16T22:33:16.294Z,100261.06
2018-08-16T22:36:14.248Z,100263.35
2018-08-16T22:39:12.192Z,100266.33
2018-08-16T22:42:09.540Z,100266.53
2018-08-16T22:45:06.605Z,100265.99
2018-08-16T22:48:03.909Z,100263.55
2018-08-16T22:51:01.923Z,100264.34
2018-08-16T22:53:59.179Z,100262.42
2018-08-16T22:56:56.895Z,100263.73
2018-08-16T22:59:54.325Z,100259.66
2018-08-16T23:02:52.139Z,100264.05
2018-08-16T23:05:50.205Z,100261.38
2018-08-16T23:08:48.132Z,100253.31
2018-08-16T23:11:45.318Z,100250.78
2018-08-16T23:14:42.300Z,100248.28
2018-08-16T23:17:39.820Z,100242.74
2018-08-16T23:20:37.668Z,100246.28
2018-08-16T23:23:35.625Z,100250.03
2018-08-16T23:26:32.760Z,100247.59
2018-08-16T23:29:30.760Z,100246.91
2018-08-16T23:32:28.264Z,100245.93
2018-08-16T23:35:26.156Z,100247.73
2018-08-16T23:38:24.178Z,100237.09
2018-08-16T23:41:21.566Z,100246.40
2018-08-16T23:44:19.416Z,100238.36
2018-08-16T23:47:17.601Z,100241.48
2018-08-16T23:50:15.282Z,100239.23
2018-08-16T23:53:12.707Z,100237.57
2018-08-16T23:56:10.008Z,100237.92
2018-08-16T23:59:07.248Z,100233.64
